Allegro — J8B5341 — position and weather

sailwx.info

Track history (hours):
 
Tides and Currents Weather Stations Pressure Air Temp Water Temp Dewpoint Dewpoint Depression Visibility Wind Speed Wind Dir Waves Ship Positions

Allegro

Last reported at 2017-Dec-14 09:06 UTC. Time now 2017-Dec-15 21:47 UTC.
Position N 26°13' W 079°32'.

Length 100 m; draft 4.6 m.

Type: Ship. MMSI: 376609000.

Date/timePositionNaut miles runAvg speedWind from/ knotsBaromVisibWave heightAir tempDewpointWater temp
2017-Dec-14 09:06N 26°13' W 079°32'212.9
2017-Dec-14 08:58N 26°13' W 079°34'714.0
2017-Dec-14 08:30N 26°10' W 079°40'714.0
2017-Dec-14 08:01N 26°07' W 079°47'713.1
2017-Dec-14 07:30N 26°05' W 079°55'613.0
2017-Dec-14 07:00N 26°05' W 080°02'5 9.2
2017-Dec-14 06:30N 26°05' W 080°07'1 1.8
2017-Dec-14 05:56N 26°04' W 080°07'0 0.0
2017-Dec-14 05:26N 26°04' W 080°07'0 0.0
2017-Dec-14 04:53N 26°04' W 080°07'0 0.0
2017-Dec-14 04:29N 26°04' W 080°07'0 0.0
2017-Dec-14 03:58N 26°04' W 080°07'0 0.0
2017-Dec-14 03:28N 26°04' W 080°07'0 0.0
2017-Dec-14 02:55N 26°04' W 080°07'0 0.0
2017-Dec-14 02:22N 26°04' W 080°07'0 0.0
2017-Dec-14 01:52N 26°04' W 080°07'0 0.0
2017-Dec-14 01:30N 26°04' W 080°07'0 0.0
2017-Dec-14 00:57N 26°04' W 080°07'0 0.0
2017-Dec-14 00:24N 26°04' W 080°07'0 0.0
2017-Dec-14 00:00N 26°04' W 080°07'1 1.5
2017-Dec-13 23:30N 26°05' W 080°07'3 5.9
2017-Dec-13 23:00N 26°07' W 080°04'0 0.5
2017-Dec-13 22:30N 26°07' W 080°04'0 0.9
2017-Dec-13 21:58N 26°07' W 080°04'0 0.1
2017-Dec-13 21:28N 26°07' W 080°04'0 0.0
2017-Dec-13 21:00N 26°07' W 080°04'0 0.0
2017-Dec-13 20:30N 26°07' W 080°04'0 0.1
2017-Dec-13 20:00N 26°07' W 080°04'0 0.0
2017-Dec-13 19:30N 26°07' W 080°04'0 0.0
2017-Dec-13 19:00N 26°07' W 080°04'0 0.0
2017-Dec-13 18:30N 26°07' W 080°04'0 0.0
2017-Dec-13 18:00N 26°07' W 080°04'0 0.0
2017-Dec-13 17:30N 26°07' W 080°04'0 0.0
2017-Dec-13 17:00N 26°07' W 080°04'0 0.0
2017-Dec-13 16:30N 26°07' W 080°04'0 0.1
2017-Dec-13 16:00N 26°07' W 080°04'0 0.0
2017-Dec-13 15:30N 26°07' W 080°04'0 0.0
2017-Dec-13 15:00N 26°07' W 080°04'1 1.0
2017-Dec-13 14:30N 26°07' W 080°04'510.3
2017-Dec-13 14:00N 26°08' W 079°58'611.4
2017-Dec-13 13:30N 26°09' W 079°52'611.2
2017-Dec-13 13:00N 26°10' W 079°46'611.4
2017-Dec-13 12:30N 26°13' W 079°40'611.4
2017-Dec-13 12:00N 26°16' W 079°35'710.9
2017-Dec-13 11:21N 26°21' W 079°30'410.1
2017-Dec-13 10:59N 26°19' W 079°27'12 0.4
2017-Dec-12 04:06N 26°08' W 079°29'113.0
2017-Dec-12 04:00N 26°08' W 079°30'612.9
2017-Dec-12 03:30N 26°07' W 079°37'713.2
2017-Dec-12 03:00N 26°07' W 079°45'713.2
2017-Dec-12 02:30N 26°06' W 079°52'612.8
2017-Dec-12 02:00N 26°06' W 079°59'510.7
2017-Dec-12 01:30N 26°05' W 080°05'2 3.8
2017-Dec-12 00:58N 26°04' W 080°07'0 0.0
2017-Dec-12 00:28N 26°04' W 080°07'0 0.0
2017-Dec-11 23:55N 26°04' W 080°07'0 0.0
2017-Dec-11 23:28N 26°04' W 080°07'0 0.0
2017-Dec-11 23:00N 26°04' W 080°07'0 0.0
2017-Dec-11 22:30N 26°04' W 080°07'0 0.0
2017-Dec-11 21:57N 26°04' W 080°07'0 0.0
2017-Dec-11 21:30N 26°04' W 080°07'0 0.0
2017-Dec-11 20:48N 26°04' W 080°07'0 0.0
2017-Dec-11 20:29N 26°04' W 080°07'0 0.0
2017-Dec-11 19:59N 26°04' W 080°07'0 0.0
2017-Dec-11 19:30N 26°04' W 080°07'0 0.0
2017-Dec-11 19:00N 26°04' W 080°07'0 0.0
2017-Dec-11 18:30N 26°04' W 080°07'3 5.2
2017-Dec-11 18:00N 26°06' W 080°05'2 4.7
2017-Dec-11 17:30N 26°08' W 080°04'0 0.0
2017-Dec-11 16:59N 26°08' W 080°04'0 0.0
2017-Dec-11 16:26N 26°08' W 080°04'0 0.0
2017-Dec-11 15:26N 26°08' W 080°04'0 0.0
2017-Dec-11 14:55N 26°08' W 080°04'0 0.1
2017-Dec-11 14:19N 26°08' W 080°04'0 0.1
2017-Dec-11 13:58N 26°08' W 080°04'0 0.1
2017-Dec-11 13:28N 26°08' W 080°04'0 0.1
2017-Dec-11 12:58N 26°08' W 080°04'0 0.0
2017-Dec-11 12:24N 26°08' W 080°04'0 0.0
2017-Dec-11 12:00N 26°08' W 080°04'0 0.1
2017-Dec-11 11:30N 26°08' W 080°04'0 0.0
2017-Dec-11 11:00N 26°08' W 080°04'0 0.0
2017-Dec-11 10:24N 26°08' W 080°04'0 0.0
2017-Dec-11 09:50N 26°08' W 080°04'0 0.0
2017-Dec-11 09:29N 26°08' W 080°04'0 0.0
2017-Dec-11 08:59N 26°08' W 080°04'0 0.0
2017-Dec-11 08:26N 26°08' W 080°04'0 0.0
2017-Dec-11 07:58N 26°08' W 080°04'0 0.0
2017-Dec-11 07:19N 26°08' W 080°04'0 0.0
2017-Dec-11 06:58N 26°08' W 080°04'0 0.0
2017-Dec-11 06:28N 26°08' W 080°04'0 0.0
2017-Dec-11 05:55N 26°08' W 080°04'0 0.0
2017-Dec-11 05:21N 26°08' W 080°04'0 0.0
2017-Dec-11 05:00N 26°08' W 080°04'0 0.0
2017-Dec-11 04:27N 26°08' W 080°04'0 0.0
2017-Dec-11 03:57N 26°08' W 080°04'0 0.0
2017-Dec-11 03:26N 26°08' W 080°04'0 0.0
2017-Dec-11 02:50N 26°08' W 080°04'0 0.0
2017-Dec-11 02:29N 26°08' W 080°04'0 0.0
2017-Dec-11 01:59N 26°08' W 080°04'0 0.0
2017-Dec-11 01:23N 26°08' W 080°04'0 0.0
2017-Dec-11 00:52N 26°08' W 080°04'0 0.0
2017-Dec-11 00:19N 26°08' W 080°04'0 0.0
2017-Dec-10 23:58N 26°08' W 080°04'0 0.0
2017-Dec-10 23:28N 26°08' W 080°04'0 0.0
2017-Dec-10 22:06N 26°08' W 080°04'0 0.0
2017-Dec-10 22:00N 26°08' W 080°04'0 0.0
2017-Dec-10 21:30N 26°08' W 080°04'0 0.0
2017-Dec-10 20:54N 26°08' W 080°04'0 0.0
2017-Dec-10 20:29N 26°08' W 080°04'0 0.0
2017-Dec-10 19:50N 26°08' W 080°04'0 0.0
2017-Dec-10 19:26N 26°08' W 080°04'0 0.0
2017-Dec-10 18:59N 26°08' W 080°04'0 0.0
2017-Dec-10 18:26N 26°08' W 080°04'0 0.0
2017-Dec-10 17:52N 26°08' W 080°04'0 0.0
2017-Dec-10 17:19N 26°08' W 080°04'0 0.0
2017-Dec-10 16:58N 26°08' W 080°04'0 0.0
2017-Dec-10 16:25N 26°08' W 080°04'0 0.0
2017-Dec-10 15:51N 26°08' W 080°04'0 0.0
2017-Dec-10 15:21N 26°08' W 080°04'0 0.0
2017-Dec-10 15:00N 26°08' W 080°04'0 0.0
2017-Dec-10 14:30N 26°08' W 080°04'0 0.0
2017-Dec-10 13:57N 26°08' W 080°04'0 0.0
2017-Dec-10 13:26N 26°08' W 080°04'0 0.0
2017-Dec-10 12:50N 26°08' W 080°04'0 0.0
2017-Dec-10 12:29N 26°08' W 080°04'0 0.0
2017-Dec-10 11:59N 26°08' W 080°04'0 0.0
2017-Dec-10 11:29N 26°08' W 080°04'0 0.0
2017-Dec-10 10:52N 26°08' W 080°04'0 0.0
2017-Dec-10 10:28N 26°08' W 080°04'0 0.0
2017-Dec-10 09:58N 26°08' W 080°04'0 0.0
2017-Dec-10 09:28N 26°08' W 080°04'0 0.0
2017-Dec-10 08:54N 26°08' W 080°04'0 0.0
2017-Dec-10 08:21N 26°08' W 080°04'0 0.0
2017-Dec-10 08:00N 26°08' W 080°04'0 0.0
2017-Dec-10 07:30N 26°08' W 080°04'0 0.0
2017-Dec-10 06:57N 26°08' W 080°04'0 0.0
2017-Dec-10 06:23N 26°08' W 080°04'0 0.1
2017-Dec-10 05:59N 26°08' W 080°04'0 0.0
2017-Dec-10 05:29N 26°08' W 080°04'0 0.0
2017-Dec-10 04:59N 26°08' W 080°04'0 0.0
2017-Dec-10 04:25N 26°08' W 080°04'0 0.1
2017-Dec-10 03:52N 26°08' W 080°04'0 0.0
2017-Dec-10 03:28N 26°08' W 080°04'0 0.0
2017-Dec-10 02:58N 26°08' W 080°04'0 0.0
2017-Dec-10 02:28N 26°08' W 080°04'0 0.0
2017-Dec-10 01:51N 26°08' W 080°04'0 0.1
2017-Dec-10 01:30N 26°08' W 080°04'0 0.0
2017-Dec-10 00:57N 26°08' W 080°04'0 0.0
2017-Dec-10 00:30N 26°08' W 080°04'0 0.0
2017-Dec-09 23:57N 26°08' W 080°04'0 0.0
2017-Dec-09 23:23N 26°08' W 080°04'0 0.0
2017-Dec-09 22:50N 26°08' W 080°04'0 0.1
2017-Dec-09 22:29N 26°08' W 080°04'0 0.2
2017-Dec-09 21:59N 26°08' W 080°04'0 0.1
2017-Dec-09 21:25N 26°08' W 080°04'0 0.0
2017-Dec-09 20:46N 26°08' W 080°04'0 0.0
2017-Dec-09 20:28N 26°08' W 080°04'0 0.0
2017-Dec-09 19:58N 26°08' W 080°04'0 0.1
2017-Dec-09 19:28N 26°08' W 080°04'0 0.1
2017-Dec-09 18:51N 26°08' W 080°04'0 0.1
2017-Dec-09 18:24N 26°08' W 080°04'0 0.0
2017-Dec-09 18:00N 26°08' W 080°04'0 0.0
2017-Dec-09 17:30N 26°08' W 080°04'0 0.0
2017-Dec-09 17:00N 26°08' W 080°04'0 0.0
2017-Dec-09 16:26N 26°08' W 080°04'0 0.0
2017-Dec-09 15:47N 26°08' W 080°04'0 0.1
2017-Dec-09 15:29N 26°08' W 080°04'0 0.1
2017-Dec-09 14:56N 26°08' W 080°04'0 0.2
2017-Dec-09 14:22N 26°08' W 080°04'0 0.1
2017-Dec-09 13:49N 26°08' W 080°04'0 0.1
2017-Dec-09 13:28N 26°08' W 080°04'0 0.0
2017-Dec-09 12:58N 26°08' W 080°04'0 0.0
2017-Dec-09 12:28N 26°08' W 080°04'0 0.0
2017-Dec-09 11:54N 26°08' W 080°04'0 0.0
2017-Dec-09 11:30N 26°08' W 080°04'0 0.0
2017-Dec-09 11:00N 26°08' W 080°04'0 0.0
2017-Dec-09 10:30N 26°08' W 080°04'0 0.0
2017-Dec-09 09:57N 26°08' W 080°04'0 0.3
2017-Dec-09 09:30N 26°08' W 080°04'2 4.9
2017-Dec-09 09:00N 26°08' W 080°02'510.0
2017-Dec-09 08:30N 26°09' W 079°56'510.4
2017-Dec-09 08:00N 26°11' W 079°51'510.3
2017-Dec-09 07:30N 26°12' W 079°45'510.6
2017-Dec-09 07:00N 26°14' W 079°40'610.9
2017-Dec-09 06:30N 26°15' W 079°34'510.9
2017-Dec-09 06:00N 26°17' W 079°28'10 0.2
2017-Dec-07 09:48N 26°06' W 079°29'412.4
2017-Dec-07 09:30N 26°06' W 079°33'612.4
2017-Dec-07 09:00N 26°06' W 079°40'612.3
2017-Dec-07 08:30N 26°06' W 079°47'612.2
2017-Dec-07 08:00N 26°06' W 079°54'612.1
2017-Dec-07 07:30N 26°06' W 080°00'510.9
2017-Dec-07 07:00N 26°06' W 080°06'1 2.6
2017-Dec-07 06:28N 26°04' W 080°07'0 0.0
2017-Dec-07 05:55N 26°04' W 080°07'0 0.0
2017-Dec-07 05:22N 26°04' W 080°07'0 0.0
2017-Dec-07 04:58N 26°04' W 080°07'0 0.0
2017-Dec-07 04:30N 26°04' W 080°07'0 0.0
2017-Dec-07 03:57N 26°04' W 080°07'0 0.0
2017-Dec-07 03:24N 26°04' W 080°07'0 0.0
2017-Dec-07 03:00N 26°04' W 080°07'0 0.0
2017-Dec-07 02:29N 26°04' W 080°07'0 0.0
2017-Dec-07 01:59N 26°04' W 080°07'0 0.0
2017-Dec-07 01:26N 26°04' W 080°07'0 0.0
2017-Dec-07 00:53N 26°04' W 080°07'0 0.0
2017-Dec-07 00:26N 26°04' W 080°07'0 0.0
2017-Dec-06 23:58N 26°04' W 080°07'0 0.0
2017-Dec-06 23:28N 26°04' W 080°07'0 0.0
2017-Dec-06 22:55N 26°04' W 080°07'0 0.0
2017-Dec-06 22:22N 26°04' W 080°07'0 0.0
2017-Dec-06 21:58N 26°04' W 080°07'0 0.0
2017-Dec-06 21:30N 26°04' W 080°07'0 0.0
2017-Dec-06 20:57N 26°04' W 080°07'  
2017-Dec-04 10:18N 26°07' W 080°05'0 0.0
2017-Dec-04 10:00N 26°07' W 080°05'0 0.0
2017-Dec-04 09:26N 26°07' W 080°05'  
Track history (hours):
 
Tides and Currents Weather Stations Pressure Air Temp Water Temp Dewpoint Dewpoint Depression Visibility Wind Speed Wind Dir Waves Ship Positions

Allegro

Last reported at 2017-Dec-14 09:06 UTC. Time now 2017-Dec-15 21:47 UTC.
Position N 26°13' W 079°32'.

Length 100 m; draft 4.6 m.

Type: Ship. MMSI: 376609000.

Date/timePositionNaut miles runAvg speedWind from/ knotsBaromVisibWave heightAir tempDewpointWater temp
2017-Dec-14 09:06N 26°13' W 079°32'212.9
2017-Dec-14 08:58N 26°13' W 079°34'714.0
2017-Dec-14 08:30N 26°10' W 079°40'714.0
2017-Dec-14 08:01N 26°07' W 079°47'713.1
2017-Dec-14 07:30N 26°05' W 079°55'613.0
2017-Dec-14 07:00N 26°05' W 080°02'5 9.2
2017-Dec-14 06:30N 26°05' W 080°07'1 1.8
2017-Dec-14 05:56N 26°04' W 080°07'0 0.0
2017-Dec-14 05:26N 26°04' W 080°07'0 0.0
2017-Dec-14 04:53N 26°04' W 080°07'0 0.0
2017-Dec-14 04:29N 26°04' W 080°07'0 0.0
2017-Dec-14 03:58N 26°04' W 080°07'0 0.0
2017-Dec-14 03:28N 26°04' W 080°07'0 0.0
2017-Dec-14 02:55N 26°04' W 080°07'0 0.0
2017-Dec-14 02:22N 26°04' W 080°07'0 0.0
2017-Dec-14 01:52N 26°04' W 080°07'0 0.0
2017-Dec-14 01:30N 26°04' W 080°07'0 0.0
2017-Dec-14 00:57N 26°04' W 080°07'0 0.0
2017-Dec-14 00:24N 26°04' W 080°07'0 0.0
2017-Dec-14 00:00N 26°04' W 080°07'1 1.5
2017-Dec-13 23:30N 26°05' W 080°07'3 5.9
2017-Dec-13 23:00N 26°07' W 080°04'0 0.5
2017-Dec-13 22:30N 26°07' W 080°04'0 0.9
2017-Dec-13 21:58N 26°07' W 080°04'0 0.1
2017-Dec-13 21:28N 26°07' W 080°04'0 0.0
2017-Dec-13 21:00N 26°07' W 080°04'0 0.0
2017-Dec-13 20:30N 26°07' W 080°04'0 0.1
2017-Dec-13 20:00N 26°07' W 080°04'0 0.0
2017-Dec-13 19:30N 26°07' W 080°04'0 0.0
2017-Dec-13 19:00N 26°07' W 080°04'0 0.0
2017-Dec-13 18:30N 26°07' W 080°04'0 0.0
2017-Dec-13 18:00N 26°07' W 080°04'0 0.0
2017-Dec-13 17:30N 26°07' W 080°04'0 0.0
2017-Dec-13 17:00N 26°07' W 080°04'0 0.0
2017-Dec-13 16:30N 26°07' W 080°04'0 0.1
2017-Dec-13 16:00N 26°07' W 080°04'0 0.0
2017-Dec-13 15:30N 26°07' W 080°04'0 0.0
2017-Dec-13 15:00N 26°07' W 080°04'1 1.0
2017-Dec-13 14:30N 26°07' W 080°04'510.3
2017-Dec-13 14:00N 26°08' W 079°58'611.4
2017-Dec-13 13:30N 26°09' W 079°52'611.2
2017-Dec-13 13:00N 26°10' W 079°46'611.4
2017-Dec-13 12:30N 26°13' W 079°40'611.4
2017-Dec-13 12:00N 26°16' W 079°35'710.9
2017-Dec-13 11:21N 26°21' W 079°30'410.1
2017-Dec-13 10:59N 26°19' W 079°27'12 0.4
2017-Dec-12 04:06N 26°08' W 079°29'113.0
2017-Dec-12 04:00N 26°08' W 079°30'612.9
2017-Dec-12 03:30N 26°07' W 079°37'713.2
2017-Dec-12 03:00N 26°07' W 079°45'713.2
2017-Dec-12 02:30N 26°06' W 079°52'612.8
2017-Dec-12 02:00N 26°06' W 079°59'510.7
2017-Dec-12 01:30N 26°05' W 080°05'2 3.8
2017-Dec-12 00:58N 26°04' W 080°07'0 0.0
2017-Dec-12 00:28N 26°04' W 080°07'0 0.0
2017-Dec-11 23:55N 26°04' W 080°07'0 0.0
2017-Dec-11 23:28N 26°04' W 080°07'0 0.0
2017-Dec-11 23:00N 26°04' W 080°07'0 0.0
2017-Dec-11 22:30N 26°04' W 080°07'0 0.0
2017-Dec-11 21:57N 26°04' W 080°07'0 0.0
2017-Dec-11 21:30N 26°04' W 080°07'0 0.0
2017-Dec-11 20:48N 26°04' W 080°07'0 0.0
2017-Dec-11 20:29N 26°04' W 080°07'0 0.0
2017-Dec-11 19:59N 26°04' W 080°07'0 0.0
2017-Dec-11 19:30N 26°04' W 080°07'0 0.0
2017-Dec-11 19:00N 26°04' W 080°07'0 0.0
2017-Dec-11 18:30N 26°04' W 080°07'3 5.2
2017-Dec-11 18:00N 26°06' W 080°05'2 4.7
2017-Dec-11 17:30N 26°08' W 080°04'0 0.0
2017-Dec-11 16:59N 26°08' W 080°04'0 0.0
2017-Dec-11 16:26N 26°08' W 080°04'0 0.0
2017-Dec-11 15:26N 26°08' W 080°04'0 0.0
2017-Dec-11 14:55N 26°08' W 080°04'0 0.1
2017-Dec-11 14:19N 26°08' W 080°04'0 0.1
2017-Dec-11 13:58N 26°08' W 080°04'0 0.1
2017-Dec-11 13:28N 26°08' W 080°04'0 0.1
2017-Dec-11 12:58N 26°08' W 080°04'0 0.0
2017-Dec-11 12:24N 26°08' W 080°04'0 0.0
2017-Dec-11 12:00N 26°08' W 080°04'0 0.1
2017-Dec-11 11:30N 26°08' W 080°04'0 0.0
2017-Dec-11 11:00N 26°08' W 080°04'0 0.0
2017-Dec-11 10:24N 26°08' W 080°04'0 0.0
2017-Dec-11 09:50N 26°08' W 080°04'0 0.0
2017-Dec-11 09:29N 26°08' W 080°04'0 0.0
2017-Dec-11 08:59N 26°08' W 080°04'0 0.0
2017-Dec-11 08:26N 26°08' W 080°04'0 0.0
2017-Dec-11 07:58N 26°08' W 080°04'0 0.0
2017-Dec-11 07:19N 26°08' W 080°04'0 0.0
2017-Dec-11 06:58N 26°08' W 080°04'0 0.0
2017-Dec-11 06:28N 26°08' W 080°04'0 0.0
2017-Dec-11 05:55N 26°08' W 080°04'0 0.0
2017-Dec-11 05:21N 26°08' W 080°04'0 0.0
2017-Dec-11 05:00N 26°08' W 080°04'0 0.0
2017-Dec-11 04:27N 26°08' W 080°04'0 0.0
2017-Dec-11 03:57N 26°08' W 080°04'0 0.0
2017-Dec-11 03:26N 26°08' W 080°04'0 0.0
2017-Dec-11 02:50N 26°08' W 080°04'0 0.0
2017-Dec-11 02:29N 26°08' W 080°04'0 0.0
2017-Dec-11 01:59N 26°08' W 080°04'0 0.0
2017-Dec-11 01:23N 26°08' W 080°04'0 0.0
2017-Dec-11 00:52N 26°08' W 080°04'0 0.0
2017-Dec-11 00:19N 26°08' W 080°04'0 0.0
2017-Dec-10 23:58N 26°08' W 080°04'0 0.0
2017-Dec-10 23:28N 26°08' W 080°04'0 0.0
2017-Dec-10 22:06N 26°08' W 080°04'0 0.0
2017-Dec-10 22:00N 26°08' W 080°04'0 0.0
2017-Dec-10 21:30N 26°08' W 080°04'0 0.0
2017-Dec-10 20:54N 26°08' W 080°04'0 0.0
2017-Dec-10 20:29N 26°08' W 080°04'0 0.0
2017-Dec-10 19:50N 26°08' W 080°04'0 0.0
2017-Dec-10 19:26N 26°08' W 080°04'0 0.0
2017-Dec-10 18:59N 26°08' W 080°04'0 0.0
2017-Dec-10 18:26N 26°08' W 080°04'0 0.0
2017-Dec-10 17:52N 26°08' W 080°04'0 0.0
2017-Dec-10 17:19N 26°08' W 080°04'0 0.0
2017-Dec-10 16:58N 26°08' W 080°04'0 0.0
2017-Dec-10 16:25N 26°08' W 080°04'0 0.0
2017-Dec-10 15:51N 26°08' W 080°04'0 0.0
2017-Dec-10 15:21N 26°08' W 080°04'0 0.0
2017-Dec-10 15:00N 26°08' W 080°04'0 0.0
2017-Dec-10 14:30N 26°08' W 080°04'0 0.0
2017-Dec-10 13:57N 26°08' W 080°04'0 0.0
2017-Dec-10 13:26N 26°08' W 080°04'0 0.0
2017-Dec-10 12:50N 26°08' W 080°04'0 0.0
2017-Dec-10 12:29N 26°08' W 080°04'0 0.0
2017-Dec-10 11:59N 26°08' W 080°04'0 0.0
2017-Dec-10 11:29N 26°08' W 080°04'0 0.0
2017-Dec-10 10:52N 26°08' W 080°04'0 0.0
2017-Dec-10 10:28N 26°08' W 080°04'0 0.0
2017-Dec-10 09:58N 26°08' W 080°04'0 0.0
2017-Dec-10 09:28N 26°08' W 080°04'0 0.0
2017-Dec-10 08:54N 26°08' W 080°04'0 0.0
2017-Dec-10 08:21N 26°08' W 080°04'0 0.0
2017-Dec-10 08:00N 26°08' W 080°04'0 0.0
2017-Dec-10 07:30N 26°08' W 080°04'0 0.0
2017-Dec-10 06:57N 26°08' W 080°04'0 0.0
2017-Dec-10 06:23N 26°08' W 080°04'0 0.1
2017-Dec-10 05:59N 26°08' W 080°04'0 0.0
2017-Dec-10 05:29N 26°08' W 080°04'0 0.0
2017-Dec-10 04:59N 26°08' W 080°04'0 0.0
2017-Dec-10 04:25N 26°08' W 080°04'0 0.1
2017-Dec-10 03:52N 26°08' W 080°04'0 0.0
2017-Dec-10 03:28N 26°08' W 080°04'0 0.0
2017-Dec-10 02:58N 26°08' W 080°04'0 0.0
2017-Dec-10 02:28N 26°08' W 080°04'0 0.0
2017-Dec-10 01:51N 26°08' W 080°04'0 0.1
2017-Dec-10 01:30N 26°08' W 080°04'0 0.0
2017-Dec-10 00:57N 26°08' W 080°04'0 0.0
2017-Dec-10 00:30N 26°08' W 080°04'0 0.0
2017-Dec-09 23:57N 26°08' W 080°04'0 0.0
2017-Dec-09 23:23N 26°08' W 080°04'0 0.0
2017-Dec-09 22:50N 26°08' W 080°04'0 0.1
2017-Dec-09 22:29N 26°08' W 080°04'0 0.2
2017-Dec-09 21:59N 26°08' W 080°04'0 0.1
2017-Dec-09 21:25N 26°08' W 080°04'0 0.0
2017-Dec-09 20:46N 26°08' W 080°04'0 0.0
2017-Dec-09 20:28N 26°08' W 080°04'0 0.0
2017-Dec-09 19:58N 26°08' W 080°04'0 0.1
2017-Dec-09 19:28N 26°08' W 080°04'0 0.1
2017-Dec-09 18:51N 26°08' W 080°04'0 0.1
2017-Dec-09 18:24N 26°08' W 080°04'0 0.0
2017-Dec-09 18:00N 26°08' W 080°04'0 0.0
2017-Dec-09 17:30N 26°08' W 080°04'0 0.0
2017-Dec-09 17:00N 26°08' W 080°04'0 0.0
2017-Dec-09 16:26N 26°08' W 080°04'0 0.0
2017-Dec-09 15:47N 26°08' W 080°04'0 0.1
2017-Dec-09 15:29N 26°08' W 080°04'0 0.1
2017-Dec-09 14:56N 26°08' W 080°04'0 0.2
2017-Dec-09 14:22N 26°08' W 080°04'0 0.1
2017-Dec-09 13:49N 26°08' W 080°04'0 0.1
2017-Dec-09 13:28N 26°08' W 080°04'0 0.0
2017-Dec-09 12:58N 26°08' W 080°04'0 0.0
2017-Dec-09 12:28N 26°08' W 080°04'0 0.0
2017-Dec-09 11:54N 26°08' W 080°04'0 0.0
2017-Dec-09 11:30N 26°08' W 080°04'0 0.0
2017-Dec-09 11:00N 26°08' W 080°04'0 0.0
2017-Dec-09 10:30N 26°08' W 080°04'0 0.0
2017-Dec-09 09:57N 26°08' W 080°04'0 0.3
2017-Dec-09 09:30N 26°08' W 080°04'2 4.9
2017-Dec-09 09:00N 26°08' W 080°02'510.0
2017-Dec-09 08:30N 26°09' W 079°56'510.4
2017-Dec-09 08:00N 26°11' W 079°51'510.3
2017-Dec-09 07:30N 26°12' W 079°45'510.6
2017-Dec-09 07:00N 26°14' W 079°40'610.9
2017-Dec-09 06:30N 26°15' W 079°34'510.9
2017-Dec-09 06:00N 26°17' W 079°28'10 0.2
2017-Dec-07 09:48N 26°06' W 079°29'412.4
2017-Dec-07 09:30N 26°06' W 079°33'612.4
2017-Dec-07 09:00N 26°06' W 079°40'612.3
2017-Dec-07 08:30N 26°06' W 079°47'612.2
2017-Dec-07 08:00N 26°06' W 079°54'612.1
2017-Dec-07 07:30N 26°06' W 080°00'510.9
2017-Dec-07 07:00N 26°06' W 080°06'1 2.6
2017-Dec-07 06:28N 26°04' W 080°07'0 0.0
2017-Dec-07 05:55N 26°04' W 080°07'0 0.0
2017-Dec-07 05:22N 26°04' W 080°07'0 0.0
2017-Dec-07 04:58N 26°04' W 080°07'0 0.0
2017-Dec-07 04:30N 26°04' W 080°07'0 0.0
2017-Dec-07 03:57N 26°04' W 080°07'0 0.0
2017-Dec-07 03:24N 26°04' W 080°07'0 0.0
2017-Dec-07 03:00N 26°04' W 080°07'0 0.0
2017-Dec-07 02:29N 26°04' W 080°07'0 0.0
2017-Dec-07 01:59N 26°04' W 080°07'0 0.0
2017-Dec-07 01:26N 26°04' W 080°07'0 0.0
2017-Dec-07 00:53N 26°04' W 080°07'0 0.0
2017-Dec-07 00:26N 26°04' W 080°07'0 0.0
2017-Dec-06 23:58N 26°04' W 080°07'0 0.0
2017-Dec-06 23:28N 26°04' W 080°07'0 0.0
2017-Dec-06 22:55N 26°04' W 080°07'0 0.0
2017-Dec-06 22:22N 26°04' W 080°07'0 0.0
2017-Dec-06 21:58N 26°04' W 080°07'0 0.0
2017-Dec-06 21:30N 26°04' W 080°07'0 0.0
2017-Dec-06 20:57N 26°04' W 080°07'  
2017-Dec-04 10:18N 26°07' W 080°05'0 0.0
2017-Dec-04 10:00N 26°07' W 080°05'0 0.0
2017-Dec-04 09:26N 26°07' W 080°05'  

Dump ship's entire track history